SIA378 LIMC-LEBL
Flight info
| Callsign | SIA378 |
|---|---|
| Flight time | N/A |
| Altitude | 35000 |
| Route | NEDED DCT GEKBA DCT VAMTU DCT KOLON DCT GANGU DCT PADKO DCT DIVKO DCT NILDU DCT BISBA |
| Aircraft | A359/H-SDE2E3GHIJ3J4J5LM1ORWXY/LB1D1 |
Departure
| Time | 2026-05-06 13:15 |
|---|---|
| Airport | Milan Malpensa International Airport (LIMC) |
Arrival
| Time | N/A |
|---|---|
| Airport | Josep Tarradellas Barcelona-El Prat Airport (LEBL) |
| Time | Latitude | Longitude | Altitude | Speed | Heading |
|---|---|---|---|---|---|
| 2026-05-06 12:44 | 45.63147 | 8.71352 | 747 ft | 0 kts | 169° |
| 2026-05-06 12:59 | 45.63161 | 8.71349 | 742 ft | 4 kts | 168° |
| 2026-05-06 12:59 | 45.63187 | 8.71340 | 742 ft | 4 kts | 164° |
| 2026-05-06 12:59 | 45.63212 | 8.71328 | 742 ft | 4 kts | 149° |
| 2026-05-06 12:59 | 45.63229 | 8.71304 | 742 ft | 4 kts | 97° |
| 2026-05-06 13:00 | 45.63230 | 8.71310 | 742 ft | 4 kts | 91° |
| 2026-05-06 13:00 | 45.63235 | 8.71361 | 743 ft | 4 kts | 79° |
| 2026-05-06 13:00 | 45.63237 | 8.71381 | 744 ft | 0 kts | 79° |
| 2026-05-06 13:05 | 45.63239 | 8.71394 | 745 ft | 5 kts | 79° |
| 2026-05-06 13:05 | 45.63251 | 8.71484 | 745 ft | 12 kts | 79° |
| 2026-05-06 13:05 | 45.63269 | 8.71614 | 744 ft | 15 kts | 79° |
| 2026-05-06 13:05 | 45.63289 | 8.71764 | 744 ft | 16 kts | 79° |
| 2026-05-06 13:06 | 45.63257 | 8.71862 | 746 ft | 12 kts | 159° |
| 2026-05-06 13:06 | 45.63154 | 8.71892 | 744 ft | 17 kts | 169° |
| 2026-05-06 13:06 | 45.63026 | 8.71927 | 744 ft | 21 kts | 169° |
| 2026-05-06 13:06 | 45.62875 | 8.71969 | 745 ft | 24 kts | 169° |
| 2026-05-06 13:07 | 45.62706 | 8.72015 | 746 ft | 23 kts | 169° |
| 2026-05-06 13:07 | 45.62554 | 8.72057 | 744 ft | 22 kts | 169° |
| 2026-05-06 13:07 | 45.62391 | 8.72102 | 745 ft | 25 kts | 169° |
| 2026-05-06 13:07 | 45.62218 | 8.72150 | 744 ft | 23 kts | 169° |
| 2026-05-06 13:08 | 45.62050 | 8.72196 | 745 ft | 26 kts | 169° |
| 2026-05-06 13:08 | 45.61876 | 8.72245 | 745 ft | 20 kts | 169° |
| 2026-05-06 13:08 | 45.61754 | 8.72278 | 746 ft | 16 kts | 169° |
| 2026-05-06 13:08 | 45.61634 | 8.72312 | 746 ft | 20 kts | 169° |
| 2026-05-06 13:09 | 45.61488 | 8.72352 | 744 ft | 21 kts | 169° |
| 2026-05-06 13:09 | 45.61381 | 8.72430 | 744 ft | 18 kts | 134° |
| 2026-05-06 13:09 | 45.61278 | 8.72521 | 744 ft | 18 kts | 168° |
| 2026-05-06 13:09 | 45.61156 | 8.72554 | 745 ft | 8 kts | 169° |
| 2026-05-06 13:10 | 45.61110 | 8.72566 | 745 ft | 8 kts | 169° |
| 2026-05-06 13:10 | 45.61076 | 8.72622 | 744 ft | 9 kts | 99° |
| 2026-05-06 13:10 | 45.61086 | 8.72727 | 745 ft | 12 kts | 79° |
| 2026-05-06 13:10 | 45.61103 | 8.72856 | 748 ft | 15 kts | 79° |
| 2026-05-06 13:11 | 45.61128 | 8.73016 | 747 ft | 18 kts | 66° |
| 2026-05-06 13:11 | 45.61226 | 8.73138 | 745 ft | 20 kts | 33° |
| 2026-05-06 13:11 | 45.61348 | 8.73252 | 743 ft | 21 kts | 26° |
| 2026-05-06 13:11 | 45.61494 | 8.73242 | 746 ft | 21 kts | 349° |
| 2026-05-06 13:12 | 45.61605 | 8.73240 | 744 ft | 11 kts | 48° |
| 2026-05-06 13:12 | 45.61628 | 8.73357 | 748 ft | 14 kts | 79° |
| 2026-05-06 13:12 | 45.61604 | 8.73495 | 743 ft | 16 kts | 120° |
| 2026-05-06 13:12 | 45.61587 | 8.73573 | 746 ft | 0 kts | 97° |
| 2026-05-06 13:13 | 45.61587 | 8.73577 | 745 ft | 3 kts | 96° |
| 2026-05-06 13:13 | 45.61590 | 8.73663 | 742 ft | 13 kts | 81° |
| 2026-05-06 13:13 | 45.61649 | 8.73729 | 743 ft | 12 kts | 356° |
| 2026-05-06 13:14 | 45.61684 | 8.73720 | 743 ft | 0 kts | 348° |
| 2026-05-06 13:14 | 45.61810 | 8.73684 | 742 ft | 53 kts | 349° |
| 2026-05-06 13:14 | 45.62420 | 8.73517 | 745 ft | 123 kts | 349° |
| 2026-05-06 13:14 | 45.63433 | 8.73238 | 1020 ft | 159 kts | 351° |
| 2026-05-06 13:15 | 45.64493 | 8.73063 | 1863 ft | 157 kts | 359° |
| 2026-05-06 13:15 | 45.65692 | 8.73046 | 2197 ft | 188 kts | 1° |
| 2026-05-06 13:15 | 45.67113 | 8.73013 | 2506 ft | 220 kts | 358° |
| 2026-05-06 13:15 | 45.68698 | 8.72860 | 3131 ft | 235 kts | 355° |
| 2026-05-06 13:16 | 45.69779 | 8.72502 | 3664 ft | 238 kts | 336° |
| 2026-05-06 13:16 | 45.70256 | 8.72147 | 3927 ft | 239 kts | 324° |
| 2026-05-06 13:16 | 45.71040 | 8.71015 | 4453 ft | 238 kts | 298° |
| 2026-05-06 13:17 | 45.71484 | 8.63442 | 7545 ft | 234 kts | 269° |
| 2026-05-06 13:17 | 45.71459 | 8.61104 | 8457 ft | 237 kts | 261° |
| 2026-05-06 13:17 | 45.70941 | 8.58855 | 9272 ft | 246 kts | 241° |
| 2026-05-06 13:17 | 45.70024 | 8.56663 | 9849 ft | 265 kts | 236° |
| 2026-05-06 13:18 | 45.68980 | 8.54385 | 10381 ft | 285 kts | 235° |
| 2026-05-06 13:18 | 45.67595 | 8.52217 | 10814 ft | 307 kts | 216° |
| 2026-05-06 13:18 | 45.65654 | 8.50795 | 11537 ft | 319 kts | 203° |
| 2026-05-06 13:18 | 45.63573 | 8.49601 | 12465 ft | 324 kts | 202° |
| 2026-05-06 13:19 | 45.61472 | 8.48407 | 13444 ft | 327 kts | 202° |
| 2026-05-06 13:19 | 45.59343 | 8.47185 | 14299 ft | 332 kts | 203° |
| 2026-05-06 13:19 | 45.57215 | 8.45954 | 15116 ft | 336 kts | 203° |
| 2026-05-06 13:19 | 45.55034 | 8.44687 | 15937 ft | 340 kts | 203° |
| 2026-05-06 13:20 | 45.52800 | 8.43498 | 16749 ft | 345 kts | 200° |
| 2026-05-06 13:20 | 45.50519 | 8.42402 | 17624 ft | 349 kts | 199° |
| 2026-05-06 13:20 | 45.48204 | 8.41289 | 18446 ft | 353 kts | 200° |
| 2026-05-06 13:20 | 45.45874 | 8.40156 | 19286 ft | 354 kts | 201° |
| 2026-05-06 13:21 | 45.43546 | 8.39015 | 20218 ft | 353 kts | 201° |
| 2026-05-06 13:21 | 45.41225 | 8.37874 | 21152 ft | 352 kts | 202° |
| 2026-05-06 13:21 | 45.38907 | 8.36731 | 22053 ft | 352 kts | 202° |
| 2026-05-06 13:21 | 45.36588 | 8.35587 | 22970 ft | 353 kts | 202° |
| 2026-05-06 13:22 | 45.34263 | 8.34441 | 23760 ft | 354 kts | 203° |
| 2026-05-06 13:22 | 45.31932 | 8.33292 | 24424 ft | 356 kts | 202° |
| 2026-05-06 13:22 | 45.29578 | 8.32132 | 25059 ft | 359 kts | 202° |
| 2026-05-06 13:22 | 45.27206 | 8.30964 | 25707 ft | 362 kts | 202° |
| 2026-05-06 13:23 | 45.24825 | 8.29794 | 26436 ft | 362 kts | 202° |
| 2026-05-06 13:23 | 45.22442 | 8.28623 | 27103 ft | 365 kts | 202° |
| 2026-05-06 13:23 | 45.20058 | 8.27452 | 27692 ft | 368 kts | 202° |